createdAt,value
2023-02-21T00:02:38.661Z,7.55
2023-02-21T00:05:24.100Z,7.32
2023-02-21T00:08:11.893Z,7.65
2023-02-21T00:10:56.780Z,7.78
2023-02-21T00:13:41.535Z,7.47
2023-02-21T00:16:26.797Z,7.28
2023-02-21T00:19:12.812Z,7.38
2023-02-21T00:22:00.982Z,7.40
2023-02-21T00:24:45.994Z,7.30
2023-02-21T00:27:36.370Z,7.38
2023-02-21T00:30:21.880Z,7.20
2023-02-21T00:33:11.341Z,7.18
2023-02-21T00:35:57.332Z,7.03
2023-02-21T00:38:42.452Z,7.35
2023-02-21T00:41:28.323Z,6.75
2023-02-21T00:44:16.726Z,6.80
2023-02-21T00:47:02.838Z,7.38
2023-02-21T00:49:47.858Z,7.10
2023-02-21T00:52:33.013Z,6.90
2023-02-21T00:55:19.933Z,7.43
2023-02-21T00:58:05.179Z,6.85
2023-02-21T01:00:50.092Z,6.40
2023-02-21T01:03:35.558Z,7.07
2023-02-21T01:06:28.423Z,6.60
2023-02-21T01:09:13.499Z,7.13
2023-02-21T01:11:58.826Z,6.95
2023-02-21T01:14:44.702Z,6.68
2023-02-21T01:17:29.607Z,7.25
2023-02-21T01:20:14.683Z,6.75
2023-02-21T01:23:00.561Z,6.68
2023-02-21T01:25:46.389Z,7.15
2023-02-21T01:28:31.483Z,7.00
2023-02-21T01:31:17.176Z,7.65
2023-02-21T01:34:03.673Z,7.55
2023-02-21T01:36:48.842Z,7.32
2023-02-21T01:39:34.036Z,8.50
2023-02-21T01:42:19.813Z,8.20
2023-02-21T01:45:06.384Z,8.18
2023-02-21T01:47:55.347Z,8.32
2023-02-21T01:50:45.904Z,8.20
2023-02-21T01:53:42.683Z,8.73
2023-02-21T01:56:28.598Z,8.52
2023-02-21T01:59:16.363Z,8.80
2023-02-21T02:02:10.127Z,8.98
2023-02-21T02:04:56.402Z,9.25
2023-02-21T02:07:41.789Z,9.20
2023-02-21T02:10:32.601Z,9.80
2023-02-21T02:13:13.463Z,9.10
2023-02-21T02:16:02.127Z,9.20
2023-02-21T02:18:48.634Z,9.40
2023-02-21T02:21:45.494Z,9.00
2023-02-21T02:24:42.946Z,9.60
2023-02-21T02:27:47.774Z,9.07
2023-02-21T02:30:33.085Z,9.25
2023-02-21T02:33:25.337Z,9.95
2023-02-21T02:36:06.959Z,9.95
2023-02-21T02:38:36.567Z,10.32
2023-02-21T02:41:14.366Z,10.35
2023-02-21T02:43:56.022Z,10.30
2023-02-21T02:46:31.982Z,11.00
2023-02-21T02:49:23.789Z,10.55
2023-02-21T02:51:53.883Z,10.52
2023-02-21T02:54:23.198Z,10.85
2023-02-21T02:56:49.944Z,10.55
2023-02-21T02:59:22.662Z,10.68
2023-02-21T03:01:49.393Z,10.80
2023-02-21T03:04:41.161Z,10.93
2023-02-21T03:07:22.685Z,10.13
2023-02-21T03:10:21.277Z,10.52
2023-02-21T03:13:12.758Z,10.30
2023-02-21T03:15:49.905Z,10.77
2023-02-21T03:18:21.565Z,10.82
2023-02-21T03:20:53.953Z,11.45
2023-02-21T03:23:21.783Z,11.75
2023-02-21T03:25:50.543Z,10.85
2023-02-21T03:28:18.926Z,11.35
2023-02-21T03:30:46.338Z,11.90
2023-02-21T03:33:13.028Z,11.25
2023-02-21T03:35:39.990Z,11.15
2023-02-21T03:38:06.557Z,12.38
2023-02-21T03:40:33.884Z,10.93
2023-02-21T03:43:05.301Z,10.95
2023-02-21T03:45:36.233Z,11.82
2023-02-21T03:48:08.303Z,11.85
2023-02-21T03:50:36.714Z,11.50
2023-02-21T03:53:03.996Z,11.57
2023-02-21T03:55:32.085Z,11.15
2023-02-21T03:58:01.232Z,11.25
2023-02-21T04:00:30.967Z,11.90
2023-02-21T04:02:57.557Z,11.95
2023-02-21T04:05:36.872Z,11.82
2023-02-21T04:08:03.915Z,11.80
2023-02-21T04:10:33.949Z,11.77
2023-02-21T04:13:04.186Z,12.18
2023-02-21T04:15:35.672Z,12.07
2023-02-21T04:18:02.427Z,11.50
2023-02-21T04:20:29.580Z,12.10
2023-02-21T04:23:03.523Z,12.10
2023-02-21T04:25:30.679Z,13.20
2023-02-21T04:28:05.563Z,11.23
2023-02-21T04:30:32.220Z,12.82
2023-02-21T04:32:59.032Z,12.55
2023-02-21T04:35:25.641Z,13.02
2023-02-21T04:37:54.206Z,13.18
2023-02-21T04:40:23.724Z,12.80
2023-02-21T04:42:50.241Z,13.10
2023-02-21T04:45:17.538Z,13.55
2023-02-21T04:47:44.285Z,13.55
2023-02-21T04:50:10.756Z,13.43
2023-02-21T04:52:37.258Z,13.20
2023-02-21T04:55:03.823Z,13.20
2023-02-21T04:57:30.302Z,13.60
2023-02-21T04:59:58.306Z,14.25
2023-02-21T05:02:24.952Z,14.23
2023-02-21T05:04:51.969Z,13.45
2023-02-21T05:07:18.675Z,13.65
2023-02-21T05:09:45.282Z,13.70
2023-02-21T05:12:14.824Z,14.63
2023-02-21T05:14:41.908Z,13.93
2023-02-21T05:17:09.061Z,13.65
2023-02-21T05:19:35.987Z,14.10
2023-02-21T05:22:03.045Z,14.15
2023-02-21T05:24:30.822Z,14.60
2023-02-21T05:26:58.350Z,13.85
2023-02-21T05:29:25.390Z,14.07
2023-02-21T05:31:52.063Z,13.63
2023-02-21T05:34:19.834Z,14.60
2023-02-21T05:36:46.863Z,13.63
2023-02-21T05:39:13.967Z,13.43
2023-02-21T05:41:46.976Z,14.18
2023-02-21T05:44:13.557Z,15.05
2023-02-21T05:46:40.213Z,14.77
2023-02-21T05:49:06.994Z,14.85
2023-02-21T05:51:42.298Z,15.38
2023-02-21T05:54:11.605Z,15.82
2023-02-21T05:56:41.956Z,14.18
2023-02-21T05:59:08.914Z,15.25
2023-02-21T06:01:36.262Z,14.75
2023-02-21T06:04:02.883Z,13.70
2023-02-21T06:06:29.362Z,14.98
2023-02-21T06:08:55.827Z,14.55
2023-02-21T06:11:31.846Z,13.95
2023-02-21T06:13:59.206Z,14.05
2023-02-21T06:16:26.537Z,14.02
2023-02-21T06:18:54.907Z,13.48
2023-02-21T06:21:21.576Z,13.68
2023-02-21T06:23:48.667Z,12.80
2023-02-21T06:26:16.575Z,12.30
2023-02-21T06:28:43.056Z,13.00
2023-02-21T06:31:09.941Z,13.50
2023-02-21T06:33:36.580Z,12.23
2023-02-21T06:36:09.312Z,11.98
2023-02-21T06:38:37.102Z,12.65
2023-02-21T06:41:08.401Z,12.40
2023-02-21T06:43:38.549Z,12.20
2023-02-21T06:46:06.985Z,12.88
2023-02-21T06:48:33.622Z,12.10
2023-02-21T06:51:00.597Z,12.65
2023-02-21T06:53:27.058Z,13.98
2023-02-21T06:55:53.715Z,13.07
2023-02-21T06:58:20.193Z,13.35
2023-02-21T07:00:46.745Z,14.05
2023-02-21T07:03:13.305Z,13.15
2023-02-21T07:05:42.050Z,13.90
2023-02-21T07:08:08.578Z,13.85
2023-02-21T07:10:35.313Z,13.55
2023-02-21T07:13:01.874Z,13.18
2023-02-21T07:15:28.582Z,14.45
2023-02-21T07:17:55.045Z,14.00
2023-02-21T07:20:22.096Z,14.13
2023-02-21T07:22:48.688Z,13.90
2023-02-21T07:25:17.510Z,13.85
2023-02-21T07:27:46.902Z,13.35
2023-02-21T07:30:14.105Z,13.63
2023-02-21T07:32:40.569Z,13.75
2023-02-21T07:35:08.070Z,14.35
2023-02-21T07:37:34.777Z,13.98
2023-02-21T07:40:05.678Z,14.52
2023-02-21T07:42:32.143Z,14.52
2023-02-21T07:44:58.957Z,14.25
2023-02-21T07:47:29.090Z,14.65
2023-02-21T07:49:55.546Z,13.82
2023-02-21T07:52:22.375Z,15.13
2023-02-21T07:54:49.104Z,14.98
2023-02-21T07:57:16.800Z,15.05
2023-02-21T07:59:43.496Z,14.48
2023-02-21T08:02:11.918Z,14.27
2023-02-21T08:04:38.418Z,14.77
2023-02-21T08:07:05.452Z,14.13
2023-02-21T08:09:33.478Z,15.88
2023-02-21T08:12:00.329Z,14.98
2023-02-21T08:14:29.152Z,15.35
2023-02-21T08:16:55.611Z,14.27
2023-02-21T08:19:22.106Z,16.02
2023-02-21T08:21:49.416Z,15.30
2023-02-21T08:24:17.490Z,13.35
2023-02-21T08:26:45.728Z,14.10
2023-02-21T08:29:13.813Z,13.55
2023-02-21T08:31:41.559Z,13.68
2023-02-21T08:34:08.756Z,14.43
2023-02-21T08:36:37.763Z,14.15
2023-02-21T08:39:05.348Z,14.43
2023-02-21T08:41:42.623Z,14.63
2023-02-21T08:44:16.095Z,14.95
2023-02-21T08:46:42.610Z,14.95
2023-02-21T08:49:10.221Z,14.55
2023-02-21T08:51:37.078Z,13.25
2023-02-21T08:54:03.736Z,13.60
2023-02-21T08:56:33.060Z,13.18
2023-02-21T08:58:59.676Z,12.60
2023-02-21T09:01:34.577Z,12.35
2023-02-21T09:04:06.977Z,14.02
2023-02-21T09:06:33.555Z,14.02
2023-02-21T09:09:00.255Z,13.70
2023-02-21T09:11:28.848Z,12.32
2023-02-21T09:13:55.432Z,12.00
2023-02-21T09:16:22.644Z,12.00
2023-02-21T09:18:58.940Z,12.32
2023-02-21T09:21:25.962Z,12.60
2023-02-21T09:23:56.790Z,12.25
2023-02-21T09:26:24.320Z,11.63
2023-02-21T09:28:54.135Z,11.85
2023-02-21T09:31:20.830Z,11.63
2023-02-21T09:33:47.470Z,11.50
2023-02-21T09:36:14.256Z,12.50
2023-02-21T09:38:43.873Z,12.48
2023-02-21T09:41:16.938Z,12.27
2023-02-21T09:43:49.200Z,12.00
2023-02-21T09:46:18.560Z,11.10
2023-02-21T09:48:45.645Z,11.35
2023-02-21T09:51:14.140Z,11.68
2023-02-21T09:53:43.743Z,10.63
2023-02-21T09:56:21.542Z,10.52
2023-02-21T09:58:49.552Z,10.20
2023-02-21T10:01:25.346Z,9.82
2023-02-21T10:03:57.574Z,9.93
2023-02-21T10:06:30.403Z,9.63
2023-02-21T10:08:56.910Z,9.55
2023-02-21T10:11:54.265Z,9.43
2023-02-21T10:14:32.726Z,9.30
2023-02-21T10:17:05.216Z,8.63
2023-02-21T10:19:38.433Z,8.52
2023-02-21T10:22:14.810Z,8.77
2023-02-21T10:24:42.095Z,8.13
2023-02-21T10:27:15.912Z,8.65
2023-02-21T10:29:52.138Z,8.05
2023-02-21T10:32:18.969Z,7.50
2023-02-21T10:34:47.532Z,7.60
2023-02-21T10:37:40.743Z,8.48
2023-02-21T10:40:25.310Z,6.85
2023-02-21T10:43:01.497Z,7.95
2023-02-21T10:45:34.445Z,7.70
2023-02-21T10:48:04.474Z,8.25
2023-02-21T10:50:43.680Z,7.50
2023-02-21T10:53:26.448Z,7.82
2023-02-21T10:56:14.723Z,7.82
2023-02-21T10:59:05.614Z,7.85
2023-02-21T11:01:36.301Z,7.32
2023-02-21T11:04:06.611Z,6.75
2023-02-21T11:06:36.444Z,6.93
2023-02-21T11:09:44.284Z,7.53
2023-02-21T11:12:19.735Z,6.65
2023-02-21T11:15:18.806Z,7.00
2023-02-21T11:17:47.133Z,6.40
2023-02-21T11:20:13.498Z,6.78
2023-02-21T11:22:42.723Z,6.70
2023-02-21T11:25:33.244Z,6.60
2023-02-21T11:28:03.766Z,6.68
2023-02-21T11:30:32.567Z,6.55
2023-02-21T11:33:00.751Z,6.68
2023-02-21T11:35:51.428Z,6.60
2023-02-21T11:38:38.040Z,6.70
2023-02-21T11:41:17.302Z,6.93
2023-02-21T11:43:52.604Z,5.90
2023-02-21T11:46:35.323Z,5.88
2023-02-21T11:49:12.347Z,5.68
2023-02-21T11:51:49.585Z,5.80
2023-02-21T11:54:16.440Z,5.65
2023-02-21T11:57:17.064Z,5.47
2023-02-21T11:59:49.799Z,6.13
2023-02-21T12:02:36.694Z,5.50
2023-02-21T12:05:15.398Z,5.30
2023-02-21T12:08:05.304Z,4.68
2023-02-21T12:10:56.948Z,5.35
2023-02-21T12:13:29.572Z,5.18
2023-02-21T12:16:05.482Z,4.63
2023-02-21T12:18:43.587Z,5.18
2023-02-21T12:21:21.702Z,4.85
2023-02-21T12:23:59.945Z,5.38
2023-02-21T12:26:46.547Z,4.88
2023-02-21T12:29:32.700Z,5.45
2023-02-21T12:32:23.358Z,4.65
2023-02-21T12:35:27.676Z,5.20
2023-02-21T12:38:04.389Z,4.43
2023-02-21T12:41:05.705Z,4.15
2023-02-21T12:43:36.606Z,4.95
2023-02-21T12:46:23.325Z,4.60
2023-02-21T12:49:13.221Z,5.00
2023-02-21T12:51:47.978Z,4.53
2023-02-21T12:54:21.767Z,5.00
2023-02-21T12:56:56.335Z,5.10
2023-02-21T12:59:31.030Z,4.45
2023-02-21T13:02:09.548Z,4.80
2023-02-21T13:04:54.761Z,4.72
2023-02-21T13:07:34.491Z,3.90
2023-02-21T13:10:17.163Z,3.00
2023-02-21T13:12:49.607Z,3.53
2023-02-21T13:15:21.870Z,3.58
2023-02-21T13:18:07.116Z,4.72
2023-02-21T13:20:49.526Z,3.85
2023-02-21T13:23:38.413Z,4.40
2023-02-21T13:26:38.028Z,4.68
2023-02-21T13:29:28.547Z,5.13
2023-02-21T13:32:03.957Z,4.63
2023-02-21T13:34:37.070Z,4.47
2023-02-21T13:37:07.396Z,3.97
2023-02-21T13:39:37.537Z,4.45
2023-02-21T13:42:10.600Z,4.43
2023-02-21T13:44:45.424Z,3.78
2023-02-21T13:47:21.656Z,4.25
2023-02-21T13:50:00.201Z,4.80
2023-02-21T13:52:32.689Z,4.40
2023-02-21T13:55:11.753Z,4.10
2023-02-21T13:57:40.879Z,4.05
2023-02-21T14:00:31.602Z,3.83
2023-02-21T14:03:05.520Z,4.47
2023-02-21T14:08:26.649Z,4.00
2023-02-21T14:11:08.402Z,3.55
2023-02-21T14:13:54.524Z,3.60
2023-02-21T14:16:37.762Z,2.83
2023-02-21T14:19:10.107Z,3.33
2023-02-21T14:21:41.421Z,2.95
2023-02-21T14:24:13.434Z,3.30
2023-02-21T14:26:39.892Z,3.65
2023-02-21T14:29:07.875Z,3.35
2023-02-21T14:31:51.300Z,2.72
2023-02-21T14:34:50.503Z,3.40
2023-02-21T14:37:55.364Z,3.80
2023-02-21T14:40:46.877Z,3.53
2023-02-21T14:43:19.283Z,3.33
2023-02-21T14:46:30.329Z,4.05
2023-02-21T14:49:18.615Z,5.20
2023-02-21T14:52:23.738Z,4.70
2023-02-21T14:55:00.056Z,4.60
2023-02-21T14:57:41.832Z,5.50
2023-02-21T15:00:28.628Z,5.30
2023-02-21T15:03:06.366Z,5.20
2023-02-21T15:05:47.927Z,5.30
2023-02-21T15:08:25.947Z,5.18
2023-02-21T15:10:59.479Z,5.18
2023-02-21T15:13:27.983Z,5.68
2023-02-21T15:16:09.069Z,5.25
2023-02-21T15:18:40.362Z,5.20
2023-02-21T15:21:20.483Z,5.70
2023-02-21T15:23:50.039Z,5.97
2023-02-21T15:26:30.333Z,5.55
2023-02-21T15:29:17.570Z,5.70
2023-02-21T15:31:52.151Z,5.22
2023-02-21T15:34:27.296Z,6.57
2023-02-21T15:37:08.514Z,6.43
2023-02-21T15:39:38.462Z,6.68
2023-02-21T15:42:07.903Z,6.13
2023-02-21T15:44:49.904Z,5.78
2023-02-21T15:47:19.858Z,5.80
2023-02-21T15:50:05.908Z,5.90
2023-02-21T15:52:42.507Z,6.10
2023-02-21T15:55:33.472Z,6.10
2023-02-21T15:57:59.831Z,5.65
2023-02-21T16:00:29.410Z,5.57
2023-02-21T16:03:29.903Z,6.28
2023-02-21T16:06:11.026Z,5.60
2023-02-21T16:08:51.170Z,5.97
2023-02-21T16:11:18.919Z,5.68
2023-02-21T16:13:46.084Z,5.68
2023-02-21T16:16:15.386Z,5.47
2023-02-21T16:18:42.111Z,5.55
2023-02-21T16:21:22.823Z,5.78
2023-02-21T16:23:49.352Z,4.97
2023-02-21T16:26:28.425Z,5.20
2023-02-21T16:28:59.270Z,5.07
2023-02-21T16:31:32.036Z,4.70
2023-02-21T16:33:58.644Z,5.00
2023-02-21T16:36:28.886Z,4.32
2023-02-21T16:38:56.484Z,5.00
2023-02-21T16:41:26.682Z,4.03
2023-02-21T16:43:55.590Z,4.10
2023-02-21T16:46:29.648Z,4.28
2023-02-21T16:48:59.861Z,4.15
2023-02-21T16:51:33.364Z,4.50
2023-02-21T16:53:59.847Z,4.38
2023-02-21T16:56:26.319Z,4.68
2023-02-21T16:58:56.179Z,4.93
2023-02-21T17:01:30.743Z,4.40
2023-02-21T17:03:58.871Z,5.20
2023-02-21T17:06:29.709Z,4.97
2023-02-21T17:08:56.711Z,5.38
2023-02-21T17:11:23.176Z,4.95
2023-02-21T17:13:49.640Z,4.75
2023-02-21T17:16:16.135Z,5.00
2023-02-21T17:18:43.919Z,5.25
2023-02-21T17:21:11.390Z,4.72
2023-02-21T17:23:41.474Z,4.68
2023-02-21T17:26:07.962Z,5.15
2023-02-21T17:28:34.602Z,4.82
2023-02-21T17:31:01.115Z,5.40
2023-02-21T17:33:27.809Z,5.60
2023-02-21T17:35:57.459Z,4.97
2023-02-21T17:38:23.944Z,5.75
2023-02-21T17:40:50.397Z,7.78
2023-02-21T17:43:16.962Z,7.07
2023-02-21T17:45:46.393Z,5.25
2023-02-21T17:48:17.710Z,5.25
2023-02-21T17:50:44.165Z,5.30
2023-02-21T17:53:10.859Z,5.80
2023-02-21T17:55:40.448Z,5.38
2023-02-21T17:58:06.937Z,6.18
2023-02-21T18:00:34.732Z,6.53
2023-02-21T18:03:09.275Z,6.63
2023-02-21T18:05:41.604Z,6.30
2023-02-21T18:08:08.097Z,6.40
2023-02-21T18:10:43.238Z,6.43
2023-02-21T18:13:23.190Z,5.78
2023-02-21T18:15:52.775Z,6.65
2023-02-21T18:18:23.022Z,6.75
2023-02-21T18:20:49.493Z,7.07
2023-02-21T18:23:16.011Z,6.57
2023-02-21T18:25:42.550Z,7.35
2023-02-21T18:28:09.055Z,7.43
2023-02-21T18:30:35.613Z,7.57
2023-02-21T18:33:02.591Z,7.20
2023-02-21T18:35:35.128Z,6.38
2023-02-21T18:38:04.668Z,7.63
2023-02-21T18:40:34.297Z,7.63
2023-02-21T18:43:01.871Z,7.93
2023-02-21T18:45:29.568Z,8.40
2023-02-21T18:48:01.476Z,8.32
2023-02-21T18:50:31.683Z,8.52
2023-02-21T18:52:58.902Z,9.40
2023-02-21T18:55:27.440Z,8.85
2023-02-21T18:57:53.951Z,8.30
2023-02-21T19:00:23.845Z,9.52
2023-02-21T19:02:50.316Z,8.98
2023-02-21T19:05:22.084Z,8.88
2023-02-21T19:07:48.550Z,8.45
2023-02-21T19:10:21.258Z,8.68
2023-02-21T19:12:54.414Z,8.80
2023-02-21T19:15:23.924Z,9.05
2023-02-21T19:17:53.941Z,9.57
2023-02-21T19:20:28.685Z,8.88
2023-02-21T19:22:56.001Z,9.07
2023-02-21T19:25:29.767Z,9.48
2023-02-21T19:28:03.307Z,9.60
2023-02-21T19:30:39.991Z,8.82
2023-02-21T19:33:11.845Z,9.23
2023-02-21T19:35:39.686Z,9.85
2023-02-21T19:38:08.013Z,9.25
2023-02-21T19:40:35.414Z,9.32
2023-02-21T19:43:03.466Z,9.85
2023-02-21T19:45:33.303Z,11.05
2023-02-21T19:48:02.302Z,10.25
2023-02-21T19:50:30.749Z,9.48
2023-02-21T19:53:03.878Z,9.30
2023-02-21T19:55:30.755Z,10.23
2023-02-21T19:57:57.251Z,10.27
2023-02-21T20:00:29.360Z,10.02
2023-02-21T20:02:56.986Z,11.05
2023-02-21T20:05:23.668Z,12.25
2023-02-21T20:07:50.131Z,12.48
2023-02-21T20:10:25.518Z,12.70
2023-02-21T20:12:55.266Z,13.65
2023-02-21T20:15:21.734Z,12.73
2023-02-21T20:17:50.761Z,12.32
2023-02-21T20:20:17.373Z,13.27
2023-02-21T20:22:46.242Z,12.80
2023-02-21T20:25:12.734Z,11.57
2023-02-21T20:27:41.873Z,11.98
2023-02-21T20:30:09.859Z,11.35
2023-02-21T20:32:36.776Z,12.43
2023-02-21T20:35:12.985Z,11.50
2023-02-21T20:37:40.037Z,11.23
2023-02-21T20:40:10.122Z,12.32
2023-02-21T20:42:37.077Z,11.32
2023-02-21T20:45:03.675Z,12.13
2023-02-21T20:47:30.658Z,12.38
2023-02-21T20:49:58.330Z,11.82
2023-02-21T20:52:28.298Z,12.27
2023-02-21T20:54:54.803Z,11.48
2023-02-21T20:57:21.288Z,11.70
2023-02-21T20:59:47.806Z,12.82
2023-02-21T21:02:14.332Z,12.70
2023-02-21T21:04:43.205Z,13.15
2023-02-21T21:07:12.948Z,12.77
2023-02-21T21:09:40.313Z,12.20
2023-02-21T21:12:11.261Z,11.90
2023-02-21T21:14:41.922Z,10.85
2023-02-21T21:17:13.778Z,10.65
2023-02-21T21:19:41.446Z,11.77
2023-02-21T21:22:12.353Z,11.88
2023-02-21T21:24:40.487Z,11.75
2023-02-21T21:27:12.397Z,11.75
2023-02-21T21:29:43.081Z,12.38
2023-02-21T21:32:11.268Z,11.50
2023-02-21T21:34:43.622Z,10.80
2023-02-21T21:37:10.321Z,10.80
2023-02-21T21:39:37.493Z,10.05
2023-02-21T21:42:09.331Z,10.80
2023-02-21T21:44:47.069Z,9.88
2023-02-21T21:47:18.375Z,9.95
2023-02-21T21:49:50.352Z,10.60
2023-02-21T21:52:18.894Z,9.95
2023-02-21T21:54:46.182Z,10.05
2023-02-21T21:57:16.610Z,10.15
2023-02-21T21:59:44.653Z,10.30
2023-02-21T22:02:11.537Z,11.52
2023-02-21T22:04:39.589Z,10.70
2023-02-21T22:07:09.907Z,12.55
2023-02-21T22:09:36.565Z,12.48
2023-02-21T22:12:07.805Z,12.30
2023-02-21T22:14:35.340Z,11.10
2023-02-21T22:17:01.867Z,11.38
2023-02-21T22:19:30.816Z,11.13
2023-02-21T22:21:59.244Z,11.00
2023-02-21T22:24:25.851Z,13.00
2023-02-21T22:26:54.965Z,11.20
2023-02-21T22:29:22.384Z,11.13
2023-02-21T22:31:51.278Z,11.13
2023-02-21T22:34:24.896Z,15.73
2023-02-21T22:36:54.068Z,10.90
2023-02-21T22:39:21.395Z,11.13
2023-02-21T22:41:51.368Z,14.38
2023-02-21T22:44:19.292Z,11.27
2023-02-21T22:46:58.396Z,11.07
2023-02-21T22:49:26.288Z,11.27
2023-02-21T22:51:52.783Z,10.77
2023-02-21T22:54:19.325Z,18.13
2023-02-21T22:56:50.924Z,12.25
2023-02-21T22:59:27.399Z,28.80
2023-02-21T23:01:54.709Z,11.07
2023-02-21T23:04:27.491Z,11.10
2023-02-21T23:06:55.732Z,11.52
2023-02-21T23:09:24.353Z,10.70
2023-02-21T23:11:53.518Z,14.05
2023-02-21T23:14:22.027Z,11.82
2023-02-21T23:16:48.713Z,11.52
2023-02-21T23:19:16.565Z,10.80
2023-02-21T23:21:51.938Z,12.02
2023-02-21T23:24:20.288Z,11.90
2023-02-21T23:26:48.578Z,11.45
2023-02-21T23:29:18.743Z,12.35
2023-02-21T23:31:45.809Z,12.30
2023-02-21T23:34:12.398Z,12.57
2023-02-21T23:36:45.118Z,13.90
2023-02-21T23:39:14.964Z,13.05
2023-02-21T23:41:42.498Z,12.35
2023-02-21T23:44:12.997Z,12.48
2023-02-21T23:46:42.397Z,13.38
2023-02-21T23:49:15.251Z,13.57
2023-02-21T23:51:46.632Z,13.85
2023-02-21T23:54:21.089Z,14.60
2023-02-21T23:56:48.296Z,12.90
2023-02-21T23:59:16.084Z,14.07
